Oxbow, Oregon
Current Conditions -  °F | °C
As of 9:16 AM on Wednesday 26 Nov 2014 (Local Time) from KMYL Reporting Station
Haze Haze  
Wind Chill: 36°   Ceiling: Unl
Heat Index: 36°   Visibility: 1.2mi
Dew Point: 35°   Wind: 3mph
Humidity: 97%   Direction: 330°NNW
Pressure: 30.31"   Gusts: NA
Location:  44.97°N, 116.86°W
Report Text: KMYL 261716Z AUTO 33003KT 1 1/4SM BR FEW001 02/02 A3031 RMK AO2 T00220017
Loading
Personal Weather Stations






























Interactive Weather Map New forecast layout! Learn more

10-Day Weather Forecast

Advertisements
Track Severe Weather on mobile